Cdry Blue — ICOB — position and weather

sailwx.info

Track history (hours):
 
Tides and Currents Weather Stations Pressure Air Temp Water Temp Dewpoint Dewpoint Depression Visibility Wind Speed Wind Dir Waves Ship Positions

Cdry Blue

Last reported at 2017-Jun-25 09:17 UTC. Time now 2017-Jun-25 14:01 UTC.
Position N 41°21' E 002°09'.

Length 108 m; draft 7 m.

Type: Cargo ship. MMSI: 247289300.

Date/timePositionNaut miles runAvg speedWind from/ knotsBaromVisibWave heightAir tempDewpointWater temp
2017-Jun-25 09:17N 41°21' E 002°09'0 0.0
2017-Jun-25 03:11N 41°21' E 002°09'0 0.0
2017-Jun-24 23:41N 41°21' E 002°09'0 0.0
2017-Jun-24 23:23N 41°21' E 002°09'0 0.0
2017-Jun-24 15:23N 41°21' E 002°09'0 0.0
2017-Jun-24 14:59N 41°21' E 002°09'0 0.0
2017-Jun-24 13:11N 41°21' E 002°09'0 0.0
2017-Jun-24 12:29N 41°21' E 002°09'0 0.0
2017-Jun-24 11:23N 41°21' E 002°09'0 0.0
2017-Jun-24 10:57N 41°21' E 002°09'1 1.3
2017-Jun-24 10:30N 41°21' E 002°10'3 5.6
2017-Jun-24 09:54N 41°17' E 002°11'4 9.0
2017-Jun-24 09:30N 41°14' E 002°14'511.0
2017-Jun-24 09:00N 41°10' E 002°18'611.1
2017-Jun-24 08:30N 41°06' E 002°23'511.0
2017-Jun-24 08:01N 41°02' E 002°28'610.9
2017-Jun-24 07:30N 40°58' E 002°33'510.9
2017-Jun-24 07:00N 40°54' E 002°38'510.8
2017-Jun-24 06:31N 40°50' E 002°42'510.6
2017-Jun-24 06:00N 40°46' E 002°47'510.5
2017-Jun-24 05:30N 40°42' E 002°51'510.3
2017-Jun-24 05:00N 40°38' E 002°56'510.3
2017-Jun-24 04:30N 40°34' E 003°01'510.2
2017-Jun-24 04:01N 40°30' E 003°05'510.2
2017-Jun-24 03:30N 40°26' E 003°09'510.4
2017-Jun-24 03:01N 40°22' E 003°13'2810.6
2017-Jun-24 00:24N 40°01' E 003°37'410.1
2017-Jun-24 00:00N 39°58' E 003°41'510.0
2017-Jun-23 23:30N 39°55' E 003°45'510.3
2017-Jun-23 23:00N 39°51' E 003°50'1010.2
2017-Jun-23 22:01N 39°47' E 004°02'010.0
2017-Jun-23 22:00N 39°47' E 004°02'1210.4
2017-Jun-23 20:53N 39°44' E 004°17'510.2
2017-Jun-23 20:23N 39°42' E 004°23'24 9.6
2017-Jun-23 17:55N 39°36' E 004°53'4 9.6
2017-Jun-23 17:30N 39°34' E 004°58'6 9.8
2017-Jun-23 16:53N 39°32' E 005°05'3710.3
2017-Jun-23 13:19N 39°21' E 005°50'410.9
2017-Jun-23 12:56N 39°19' E 005°55'13110.9
2017-Jun-23 00:52N 38°42' E 008°37'411.0
2017-Jun-23 00:30N 38°43' E 008°42'610.9
2017-Jun-23 00:00N 38°45' E 008°49'610.9
2017-Jun-22 23:29N 38°47' E 008°56'511.2
2017-Jun-22 23:00N 38°48' E 009°02'611.1
2017-Jun-22 22:30N 38°50' E 009°09'2210.8
2017-Jun-22 20:28N 38°55' E 009°36'510.7
2017-Jun-22 20:00N 38°55' E 009°43'610.7
2017-Jun-22 19:29N 38°55' E 009°50'510.8
2017-Jun-22 19:00N 38°54' E 009°56'610.9
2017-Jun-22 18:29N 38°53' E 010°03'511.1
2017-Jun-22 18:00N 38°52' E 010°10'611.4
2017-Jun-22 17:30N 38°50' E 010°17'2411.0
2017-Jun-22 15:19N 38°46' E 010°48'411.0
2017-Jun-22 14:58N 38°45' E 010°53'8511.0
2017-Jun-22 07:14N 38°27' E 012°39'310.8
2017-Jun-22 06:58N 38°26' E 012°42'510.6
2017-Jun-22 06:29N 38°26' E 012°49'510.5
2017-Jun-22 06:00N 38°25' E 012°55'510.6
2017-Jun-22 05:30N 38°25' E 013°02'510.7
2017-Jun-22 05:01N 38°25' E 013°09'510.9
2017-Jun-22 04:30N 38°24' E 013°16'510.9
2017-Jun-22 04:01N 38°24' E 013°23'510.6
2017-Jun-22 03:31N 38°24' E 013°29'510.4
2017-Jun-22 03:01N 38°24' E 013°36'510.5
2017-Jun-22 02:31N 38°23' E 013°43'510.7
2017-Jun-22 02:00N 38°23' E 013°49'510.7
2017-Jun-22 01:30N 38°22' E 013°56'510.8
2017-Jun-22 01:00N 38°22' E 014°03'2810.7
2017-Jun-21 22:21N 38°20' E 014°39'811.0
2017-Jun-21 21:36N 38°20' E 014°50'111.1
2017-Jun-21 21:29N 38°19' E 014°52'611.1
2017-Jun-21 20:59N 38°19' E 014°59'511.1
2017-Jun-21 20:30N 38°20' E 015°05'611.3
2017-Jun-21 19:57N 38°21' E 015°13'511.3
2017-Jun-21 19:30N 38°21' E 015°20'511.3
2017-Jun-21 19:01N 38°22' E 015°27'511.0
2017-Jun-21 18:31N 38°23' E 015°34'610.7
2017-Jun-21 17:58N 38°19' E 015°40'5 6.4
2017-Jun-21 17:08N 38°14' E 015°38'110.2
2017-Jun-21 17:01N 38°13' E 015°37'610.8
2017-Jun-21 16:30N 38°08' E 015°36'5 9.9
2017-Jun-21 15:59N 38°03' E 015°36'610.0
2017-Jun-21 15:26N 37°57' E 015°37'510.8
2017-Jun-21 15:01N 37°54' E 015°41'1011.2
2017-Jun-21 14:09N 37°51' E 015°53'9910.4
2017-Jun-21 04:41N 39°03' E 017°19'211.3
2017-Jun-21 04:30N 39°05' E 017°19'711.5
2017-Jun-21 03:56N 39°11' E 017°18'512.0
2017-Jun-21 03:30N 39°16' E 017°18'4011.3
2017-Jun-21 00:00N 39°56' E 017°12'510.7
2017-Jun-20 23:30N 40°01' E 017°11'610.7
2017-Jun-20 22:58N 40°07' E 017°10'511.0
2017-Jun-20 22:30N 40°12' E 017°09'611.0
2017-Jun-20 22:00N 40°17' E 017°09'611.2
2017-Jun-20 21:29N 40°23' E 017°08'5 9.5
2017-Jun-20 21:01N 40°26' E 017°12'2 4.7
2017-Jun-20 20:30N 40°29' E 017°13'0 0.0
2017-Jun-20 20:00N 40°29' E 017°13'0 0.0
2017-Jun-20 19:30N 40°29' E 017°13'0 0.0
2017-Jun-20 19:00N 40°29' E 017°13'0 0.0
2017-Jun-20 18:27N 40°29' E 017°13'0 0.0
2017-Jun-20 18:00N 40°29' E 017°13'0 0.0
2017-Jun-20 17:27N 40°29' E 017°13'0 0.0
2017-Jun-20 17:00N 40°29' E 017°13'0 0.0
2017-Jun-20 16:30N 40°29' E 017°13'0 0.0
2017-Jun-20 15:57N 40°29' E 017°13'0 0.0
2017-Jun-20 15:30N 40°29' E 017°13'0 0.0
2017-Jun-20 15:00N 40°29' E 017°13'0 0.0
2017-Jun-20 14:00N 40°29' E 017°13'0 0.0
2017-Jun-20 13:30N 40°29' E 017°13'0 0.0
2017-Jun-20 12:57N 40°29' E 017°13'0 0.0
2017-Jun-20 12:30N 40°29' E 017°13'0 0.0
2017-Jun-20 12:00N 40°29' E 017°13'0 0.0
2017-Jun-20 11:30N 40°29' E 017°13'0 0.0
2017-Jun-20 11:00N 40°29' E 017°13'0 0.0
2017-Jun-20 10:30N 40°29' E 017°13'0 0.0
2017-Jun-20 09:54N 40°29' E 017°13'0 0.0
2017-Jun-20 09:30N 40°29' E 017°13'0 0.0
2017-Jun-20 08:57N 40°29' E 017°13'0 0.0
2017-Jun-20 08:30N 40°29' E 017°13'0 0.0
2017-Jun-20 07:57N 40°29' E 017°13'0 0.0
2017-Jun-20 07:30N 40°29' E 017°13'0 0.0
2017-Jun-20 07:00N 40°29' E 017°13'0 0.0
2017-Jun-20 06:27N 40°29' E 017°13'0 0.0
2017-Jun-20 06:00N 40°29' E 017°13'0 0.0
2017-Jun-20 05:30N 40°29' E 017°13'0 0.0
2017-Jun-20 05:00N 40°29' E 017°13'0 0.0
2017-Jun-20 04:30N 40°29' E 017°13'0 0.0
2017-Jun-20 03:57N 40°29' E 017°13'0 0.0
2017-Jun-20 03:30N 40°29' E 017°13'0 0.0
2017-Jun-20 02:54N 40°29' E 017°13'0 0.0
2017-Jun-20 02:30N 40°29' E 017°13'0 0.0
2017-Jun-20 02:00N 40°29' E 017°13'0 0.0
2017-Jun-20 00:12N 40°29' E 017°13'0 0.0
2017-Jun-20 00:00N 40°29' E 017°13'0 0.0
2017-Jun-19 23:30N 40°29' E 017°13'0 0.0
2017-Jun-19 22:09N 40°29' E 017°13'0 0.0
2017-Jun-19 21:57N 40°29' E 017°13'0 0.0
2017-Jun-19 21:27N 40°29' E 017°13'0 0.0
2017-Jun-19 20:57N 40°29' E 017°13'0 0.0
2017-Jun-19 20:30N 40°29' E 017°13'0 0.0
2017-Jun-19 20:00N 40°29' E 017°13'0 0.0
2017-Jun-19 19:30N 40°29' E 017°13'0 0.0
2017-Jun-19 18:42N 40°29' E 017°13'0 0.0
2017-Jun-19 18:27N 40°29' E 017°13'0 0.0
2017-Jun-19 17:54N 40°29' E 017°13'0 0.0
2017-Jun-19 17:30N 40°29' E 017°13'0 0.0
2017-Jun-19 17:00N 40°29' E 017°13'0 0.0
2017-Jun-19 16:27N 40°29' E 017°13'0 0.0
2017-Jun-19 15:51N 40°29' E 017°13'0 0.0
2017-Jun-19 15:30N 40°29' E 017°13'0 0.0
2017-Jun-19 14:57N 40°29' E 017°13'0 0.0
2017-Jun-19 14:00N 40°29' E 017°13'0 0.0
2017-Jun-19 13:30N 40°29' E 017°13'0 0.0
2017-Jun-19 12:57N 40°29' E 017°13'0 0.0
2017-Jun-19 12:30N 40°29' E 017°13'0 0.0
2017-Jun-19 11:57N 40°29' E 017°13'0 0.0
2017-Jun-19 11:15N 40°29' E 017°12'0 0.0
2017-Jun-19 11:00N 40°29' E 017°13'0 0.0
2017-Jun-19 10:27N 40°29' E 017°13'0 0.0
2017-Jun-19 09:57N 40°29' E 017°13'0 0.0
2017-Jun-19 09:30N 40°29' E 017°13'0 0.0
2017-Jun-19 09:00N 40°29' E 017°13'0 0.0
2017-Jun-19 08:30N 40°29' E 017°13'0 0.0
2017-Jun-19 07:57N 40°29' E 017°13'0 0.0
2017-Jun-19 07:30N 40°29' E 017°13'0 0.0
2017-Jun-19 07:00N 40°29' E 017°12'0 0.0
2017-Jun-19 06:24N 40°29' E 017°13'0 0.0
2017-Jun-19 05:57N 40°29' E 017°13'0 0.0
2017-Jun-19 05:24N 40°29' E 017°13'0 0.0
2017-Jun-19 04:51N 40°29' E 017°13'0 0.0
2017-Jun-19 04:27N 40°29' E 017°12'0 0.0
2017-Jun-19 03:57N 40°29' E 017°13'0 0.0
2017-Jun-19 03:30N 40°29' E 017°13'0 0.0
2017-Jun-19 02:54N 40°29' E 017°13'0 0.0
2017-Jun-19 02:18N 40°29' E 017°13'0 0.0
2017-Jun-19 01:57N 40°29' E 017°13'0 0.0
2017-Jun-19 01:30N 40°29' E 017°13'0 0.0
2017-Jun-19 00:57N 40°29' E 017°13'0 0.0
2017-Jun-19 00:18N 40°29' E 017°13'0 0.0
2017-Jun-18 23:57N 40°29' E 017°13'0 0.0
2017-Jun-18 23:30N 40°29' E 017°12'0 0.0
2017-Jun-18 23:00N 40°29' E 017°13'0 0.0
2017-Jun-18 22:24N 40°29' E 017°13'0 0.0
2017-Jun-18 22:00N 40°29' E 017°13'0 0.0
2017-Jun-18 21:30N 40°29' E 017°13'0 0.0
2017-Jun-18 20:57N 40°29' E 017°13'0 0.0
2017-Jun-18 20:30N 40°29' E 017°13'0 0.0
2017-Jun-18 20:00N 40°29' E 017°13'0 0.0
2017-Jun-18 19:27N 40°29' E 017°13'0 0.0
2017-Jun-18 18:57N 40°29' E 017°13'0 0.0
2017-Jun-18 18:30N 40°29' E 017°13'0 0.0
2017-Jun-18 18:00N 40°29' E 017°13'0 0.0
2017-Jun-18 17:24N 40°29' E 017°13'0 0.0
2017-Jun-18 16:54N 40°29' E 017°13'0 0.0
2017-Jun-18 16:30N 40°29' E 017°13'0 0.0
2017-Jun-18 15:54N 40°29' E 017°13'0 0.0
2017-Jun-18 15:30N 40°29' E 017°13'0 0.0
2017-Jun-18 15:00N 40°29' E 017°13'0 0.0
2017-Jun-18 14:00N 40°29' E 017°13'0 0.0
2017-Jun-18 13:30N 40°29' E 017°13'0 0.0
2017-Jun-18 13:00N 40°29' E 017°13'0 0.0
2017-Jun-18 12:27N 40°29' E 017°13'0 0.0
2017-Jun-18 12:00N 40°29' E 017°13'0 0.0
2017-Jun-18 11:18N 40°29' E 017°13'0 0.0
2017-Jun-18 11:00N 40°29' E 017°13'0 0.0
2017-Jun-18 10:27N 40°29' E 017°13'0 0.0
2017-Jun-18 09:57N 40°29' E 017°13'0 0.0
2017-Jun-18 09:30N 40°29' E 017°13'0 0.0
2017-Jun-18 09:00N 40°29' E 017°13'0 0.0
2017-Jun-18 08:30N 40°29' E 017°13'0 0.0
2017-Jun-18 08:00N 40°29' E 017°13'0 0.0
2017-Jun-18 07:30N 40°29' E 017°12'0 0.0
2017-Jun-18 07:00N 40°29' E 017°13'0 0.0
2017-Jun-18 06:27N 40°29' E 017°13'0 0.0
2017-Jun-18 06:00N 40°29' E 017°13'0 0.0
2017-Jun-18 05:30N 40°29' E 017°13'0 0.0
2017-Jun-18 04:57N 40°29' E 017°13'0 0.0
2017-Jun-18 04:30N 40°29' E 017°13'0 0.0
2017-Jun-18 03:51N 40°29' E 017°13'0 0.0
2017-Jun-18 03:27N 40°29' E 017°13'0 0.0
2017-Jun-18 02:54N 40°29' E 017°13'0 0.0
2017-Jun-18 02:30N 40°29' E 017°13'0 0.0
2017-Jun-18 02:00N 40°29' E 017°13'0 0.0
2017-Jun-18 01:30N 40°29' E 017°13'0 0.0
2017-Jun-18 01:00N 40°29' E 017°13'0 0.0
2017-Jun-18 00:30N 40°29' E 017°13'0 0.0
2017-Jun-18 00:00N 40°29' E 017°13'0 0.0
2017-Jun-17 23:30N 40°29' E 017°13'0 0.0
2017-Jun-17 23:00N 40°29' E 017°13'0 0.0
2017-Jun-17 22:30N 40°29' E 017°13'0 0.0
2017-Jun-17 22:00N 40°29' E 017°13'0 0.0
2017-Jun-17 21:30N 40°29' E 017°13'0 0.0
2017-Jun-17 20:54N 40°29' E 017°13'0 0.0
2017-Jun-17 20:27N 40°29' E 017°13'0 0.0
2017-Jun-17 19:57N 40°29' E 017°13'0 0.0
2017-Jun-17 19:27N 40°29' E 017°13'0 0.0
2017-Jun-17 19:00N 40°29' E 017°13'0 0.0
2017-Jun-17 18:30N 40°29' E 017°13'0 0.0
2017-Jun-17 17:54N 40°29' E 017°13'0 0.0
2017-Jun-17 17:27N 40°29' E 017°13'0 0.0
2017-Jun-17 17:00N 40°29' E 017°13'0 0.0
2017-Jun-17 16:27N 40°29' E 017°13'0 0.0
2017-Jun-17 15:57N 40°29' E 017°13'0 0.0
2017-Jun-17 15:30N 40°29' E 017°13'0 0.0
2017-Jun-17 14:57N 40°29' E 017°13'0 0.0
2017-Jun-17 14:00N 40°29' E 017°13'0 0.0
2017-Jun-17 13:27N 40°29' E 017°13'0 0.0
2017-Jun-17 11:30N 40°29' E 017°13'0 0.0
2017-Jun-17 11:00N 40°29' E 017°13'0 0.0
2017-Jun-17 10:30N 40°29' E 017°13'0 0.0
2017-Jun-17 09:51N 40°29' E 017°13'0 0.0
2017-Jun-17 09:24N 40°29' E 017°13'0 0.0
2017-Jun-17 08:57N 40°29' E 017°13'0 0.0
2017-Jun-17 07:06N 40°29' E 017°13'0 0.0
2017-Jun-17 07:00N 40°29' E 017°13'0 0.0
2017-Jun-17 06:21N 40°29' E 017°13'0 0.0
2017-Jun-17 06:00N 40°29' E 017°13'0 0.0
2017-Jun-17 05:24N 40°29' E 017°13'0 0.0
2017-Jun-17 05:00N 40°29' E 017°13'0 0.0
2017-Jun-17 04:18N 40°29' E 017°13'0 0.0
2017-Jun-17 03:57N 40°29' E 017°13'0 0.0
2017-Jun-17 03:30N 40°29' E 017°13'0 0.0
2017-Jun-17 03:00N 40°29' E 017°13'0 0.0
2017-Jun-17 02:30N 40°29' E 017°13'0 0.0
2017-Jun-17 02:00N 40°29' E 017°13'0 0.0
2017-Jun-17 01:30N 40°29' E 017°13'0 0.0
2017-Jun-17 01:00N 40°29' E 017°13'0 0.0
2017-Jun-17 00:30N 40°29' E 017°13'0 0.0
2017-Jun-16 23:48N 40°29' E 017°13'0 0.0
2017-Jun-16 23:27N 40°29' E 017°13'0 0.0
2017-Jun-16 22:57N 40°29' E 017°13'0 0.0
2017-Jun-16 22:27N 40°29' E 017°13'0 0.0
2017-Jun-16 21:51N 40°29' E 017°13'0 0.0
2017-Jun-16 21:27N 40°29' E 017°13'0 0.0
2017-Jun-16 21:00N 40°29' E 017°13'0 0.0
2017-Jun-16 20:30N 40°29' E 017°13'0 0.0
2017-Jun-16 20:00N 40°29' E 017°13'0 0.0
2017-Jun-16 19:30N 40°29' E 017°13'0 0.0
2017-Jun-16 18:57N 40°29' E 017°13'0 0.0
2017-Jun-16 18:30N 40°29' E 017°13'0 0.0
2017-Jun-16 17:51N 40°29' E 017°13'0 0.0
2017-Jun-16 17:30N 40°29' E 017°13'0 0.0
2017-Jun-16 17:00N 40°29' E 017°13'0 0.0
2017-Jun-16 16:24N 40°29' E 017°13'0 0.0
2017-Jun-16 15:42N 40°29' E 017°13'0 0.0
2017-Jun-16 15:30N 40°29' E 017°13'0 0.0
2017-Jun-16 14:57N 40°29' E 017°13'0 0.0
2017-Jun-16 14:27N 40°29' E 017°13'0 0.0
2017-Jun-16 13:30N 40°29' E 017°13'0 0.0
2017-Jun-16 13:00N 40°29' E 017°13'0 0.0
2017-Jun-16 10:57N 40°29' E 017°13'0 0.0
2017-Jun-16 10:24N 40°29' E 017°13'0 0.0
2017-Jun-16 09:51N 40°29' E 017°13'0 0.0
2017-Jun-16 09:30N 40°29' E 017°13'0 0.0
2017-Jun-16 09:00N 40°29' E 017°13'1 2.1
2017-Jun-16 08:30N 40°28' E 017°12'4 8.7
2017-Jun-16 08:00N 40°24' E 017°09'5 9.2
2017-Jun-16 07:30N 40°21' E 017°14'612.2
2017-Jun-16 07:00N 40°17' E 017°20'612.9
2017-Jun-16 06:30N 40°15' E 017°28'712.8
2017-Jun-16 05:59N 40°12' E 017°36'19 1.3
2017-Jun-15 15:12N 40°05' E 017°59'  
Track history (hours):
 
Tides and Currents Weather Stations Pressure Air Temp Water Temp Dewpoint Dewpoint Depression Visibility Wind Speed Wind Dir Waves Ship Positions

Cdry Blue

Last reported at 2017-Jun-25 09:17 UTC. Time now 2017-Jun-25 14:01 UTC.
Position N 41°21' E 002°09'.

Length 108 m; draft 7 m.

Type: Cargo ship. MMSI: 247289300.

Date/timePositionNaut miles runAvg speedWind from/ knotsBaromVisibWave heightAir tempDewpointWater temp
2017-Jun-25 09:17N 41°21' E 002°09'0 0.0
2017-Jun-25 03:11N 41°21' E 002°09'0 0.0
2017-Jun-24 23:41N 41°21' E 002°09'0 0.0
2017-Jun-24 23:23N 41°21' E 002°09'0 0.0
2017-Jun-24 15:23N 41°21' E 002°09'0 0.0
2017-Jun-24 14:59N 41°21' E 002°09'0 0.0
2017-Jun-24 13:11N 41°21' E 002°09'0 0.0
2017-Jun-24 12:29N 41°21' E 002°09'0 0.0
2017-Jun-24 11:23N 41°21' E 002°09'0 0.0
2017-Jun-24 10:57N 41°21' E 002°09'1 1.3
2017-Jun-24 10:30N 41°21' E 002°10'3 5.6
2017-Jun-24 09:54N 41°17' E 002°11'4 9.0
2017-Jun-24 09:30N 41°14' E 002°14'511.0
2017-Jun-24 09:00N 41°10' E 002°18'611.1
2017-Jun-24 08:30N 41°06' E 002°23'511.0
2017-Jun-24 08:01N 41°02' E 002°28'610.9
2017-Jun-24 07:30N 40°58' E 002°33'510.9
2017-Jun-24 07:00N 40°54' E 002°38'510.8
2017-Jun-24 06:31N 40°50' E 002°42'510.6
2017-Jun-24 06:00N 40°46' E 002°47'510.5
2017-Jun-24 05:30N 40°42' E 002°51'510.3
2017-Jun-24 05:00N 40°38' E 002°56'510.3
2017-Jun-24 04:30N 40°34' E 003°01'510.2
2017-Jun-24 04:01N 40°30' E 003°05'510.2
2017-Jun-24 03:30N 40°26' E 003°09'510.4
2017-Jun-24 03:01N 40°22' E 003°13'2810.6
2017-Jun-24 00:24N 40°01' E 003°37'410.1
2017-Jun-24 00:00N 39°58' E 003°41'510.0
2017-Jun-23 23:30N 39°55' E 003°45'510.3
2017-Jun-23 23:00N 39°51' E 003°50'1010.2
2017-Jun-23 22:01N 39°47' E 004°02'010.0
2017-Jun-23 22:00N 39°47' E 004°02'1210.4
2017-Jun-23 20:53N 39°44' E 004°17'510.2
2017-Jun-23 20:23N 39°42' E 004°23'24 9.6
2017-Jun-23 17:55N 39°36' E 004°53'4 9.6
2017-Jun-23 17:30N 39°34' E 004°58'6 9.8
2017-Jun-23 16:53N 39°32' E 005°05'3710.3
2017-Jun-23 13:19N 39°21' E 005°50'410.9
2017-Jun-23 12:56N 39°19' E 005°55'13110.9
2017-Jun-23 00:52N 38°42' E 008°37'411.0
2017-Jun-23 00:30N 38°43' E 008°42'610.9
2017-Jun-23 00:00N 38°45' E 008°49'610.9
2017-Jun-22 23:29N 38°47' E 008°56'511.2
2017-Jun-22 23:00N 38°48' E 009°02'611.1
2017-Jun-22 22:30N 38°50' E 009°09'2210.8
2017-Jun-22 20:28N 38°55' E 009°36'510.7
2017-Jun-22 20:00N 38°55' E 009°43'610.7
2017-Jun-22 19:29N 38°55' E 009°50'510.8
2017-Jun-22 19:00N 38°54' E 009°56'610.9
2017-Jun-22 18:29N 38°53' E 010°03'511.1
2017-Jun-22 18:00N 38°52' E 010°10'611.4
2017-Jun-22 17:30N 38°50' E 010°17'2411.0
2017-Jun-22 15:19N 38°46' E 010°48'411.0
2017-Jun-22 14:58N 38°45' E 010°53'8511.0
2017-Jun-22 07:14N 38°27' E 012°39'310.8
2017-Jun-22 06:58N 38°26' E 012°42'510.6
2017-Jun-22 06:29N 38°26' E 012°49'510.5
2017-Jun-22 06:00N 38°25' E 012°55'510.6
2017-Jun-22 05:30N 38°25' E 013°02'510.7
2017-Jun-22 05:01N 38°25' E 013°09'510.9
2017-Jun-22 04:30N 38°24' E 013°16'510.9
2017-Jun-22 04:01N 38°24' E 013°23'510.6
2017-Jun-22 03:31N 38°24' E 013°29'510.4
2017-Jun-22 03:01N 38°24' E 013°36'510.5
2017-Jun-22 02:31N 38°23' E 013°43'510.7
2017-Jun-22 02:00N 38°23' E 013°49'510.7
2017-Jun-22 01:30N 38°22' E 013°56'510.8
2017-Jun-22 01:00N 38°22' E 014°03'2810.7
2017-Jun-21 22:21N 38°20' E 014°39'811.0
2017-Jun-21 21:36N 38°20' E 014°50'111.1
2017-Jun-21 21:29N 38°19' E 014°52'611.1
2017-Jun-21 20:59N 38°19' E 014°59'511.1
2017-Jun-21 20:30N 38°20' E 015°05'611.3
2017-Jun-21 19:57N 38°21' E 015°13'511.3
2017-Jun-21 19:30N 38°21' E 015°20'511.3
2017-Jun-21 19:01N 38°22' E 015°27'511.0
2017-Jun-21 18:31N 38°23' E 015°34'610.7
2017-Jun-21 17:58N 38°19' E 015°40'5 6.4
2017-Jun-21 17:08N 38°14' E 015°38'110.2
2017-Jun-21 17:01N 38°13' E 015°37'610.8
2017-Jun-21 16:30N 38°08' E 015°36'5 9.9
2017-Jun-21 15:59N 38°03' E 015°36'610.0
2017-Jun-21 15:26N 37°57' E 015°37'510.8
2017-Jun-21 15:01N 37°54' E 015°41'1011.2
2017-Jun-21 14:09N 37°51' E 015°53'9910.4
2017-Jun-21 04:41N 39°03' E 017°19'211.3
2017-Jun-21 04:30N 39°05' E 017°19'711.5
2017-Jun-21 03:56N 39°11' E 017°18'512.0
2017-Jun-21 03:30N 39°16' E 017°18'4011.3
2017-Jun-21 00:00N 39°56' E 017°12'510.7
2017-Jun-20 23:30N 40°01' E 017°11'610.7
2017-Jun-20 22:58N 40°07' E 017°10'511.0
2017-Jun-20 22:30N 40°12' E 017°09'611.0
2017-Jun-20 22:00N 40°17' E 017°09'611.2
2017-Jun-20 21:29N 40°23' E 017°08'5 9.5
2017-Jun-20 21:01N 40°26' E 017°12'2 4.7
2017-Jun-20 20:30N 40°29' E 017°13'0 0.0
2017-Jun-20 20:00N 40°29' E 017°13'0 0.0
2017-Jun-20 19:30N 40°29' E 017°13'0 0.0
2017-Jun-20 19:00N 40°29' E 017°13'0 0.0
2017-Jun-20 18:27N 40°29' E 017°13'0 0.0
2017-Jun-20 18:00N 40°29' E 017°13'0 0.0
2017-Jun-20 17:27N 40°29' E 017°13'0 0.0
2017-Jun-20 17:00N 40°29' E 017°13'0 0.0
2017-Jun-20 16:30N 40°29' E 017°13'0 0.0
2017-Jun-20 15:57N 40°29' E 017°13'0 0.0
2017-Jun-20 15:30N 40°29' E 017°13'0 0.0
2017-Jun-20 15:00N 40°29' E 017°13'0 0.0
2017-Jun-20 14:00N 40°29' E 017°13'0 0.0
2017-Jun-20 13:30N 40°29' E 017°13'0 0.0
2017-Jun-20 12:57N 40°29' E 017°13'0 0.0
2017-Jun-20 12:30N 40°29' E 017°13'0 0.0
2017-Jun-20 12:00N 40°29' E 017°13'0 0.0
2017-Jun-20 11:30N 40°29' E 017°13'0 0.0
2017-Jun-20 11:00N 40°29' E 017°13'0 0.0
2017-Jun-20 10:30N 40°29' E 017°13'0 0.0
2017-Jun-20 09:54N 40°29' E 017°13'0 0.0
2017-Jun-20 09:30N 40°29' E 017°13'0 0.0
2017-Jun-20 08:57N 40°29' E 017°13'0 0.0
2017-Jun-20 08:30N 40°29' E 017°13'0 0.0
2017-Jun-20 07:57N 40°29' E 017°13'0 0.0
2017-Jun-20 07:30N 40°29' E 017°13'0 0.0
2017-Jun-20 07:00N 40°29' E 017°13'0 0.0
2017-Jun-20 06:27N 40°29' E 017°13'0 0.0
2017-Jun-20 06:00N 40°29' E 017°13'0 0.0
2017-Jun-20 05:30N 40°29' E 017°13'0 0.0
2017-Jun-20 05:00N 40°29' E 017°13'0 0.0
2017-Jun-20 04:30N 40°29' E 017°13'0 0.0
2017-Jun-20 03:57N 40°29' E 017°13'0 0.0
2017-Jun-20 03:30N 40°29' E 017°13'0 0.0
2017-Jun-20 02:54N 40°29' E 017°13'0 0.0
2017-Jun-20 02:30N 40°29' E 017°13'0 0.0
2017-Jun-20 02:00N 40°29' E 017°13'0 0.0
2017-Jun-20 00:12N 40°29' E 017°13'0 0.0
2017-Jun-20 00:00N 40°29' E 017°13'0 0.0
2017-Jun-19 23:30N 40°29' E 017°13'0 0.0
2017-Jun-19 22:09N 40°29' E 017°13'0 0.0
2017-Jun-19 21:57N 40°29' E 017°13'0 0.0
2017-Jun-19 21:27N 40°29' E 017°13'0 0.0
2017-Jun-19 20:57N 40°29' E 017°13'0 0.0
2017-Jun-19 20:30N 40°29' E 017°13'0 0.0
2017-Jun-19 20:00N 40°29' E 017°13'0 0.0
2017-Jun-19 19:30N 40°29' E 017°13'0 0.0
2017-Jun-19 18:42N 40°29' E 017°13'0 0.0
2017-Jun-19 18:27N 40°29' E 017°13'0 0.0
2017-Jun-19 17:54N 40°29' E 017°13'0 0.0
2017-Jun-19 17:30N 40°29' E 017°13'0 0.0
2017-Jun-19 17:00N 40°29' E 017°13'0 0.0
2017-Jun-19 16:27N 40°29' E 017°13'0 0.0
2017-Jun-19 15:51N 40°29' E 017°13'0 0.0
2017-Jun-19 15:30N 40°29' E 017°13'0 0.0
2017-Jun-19 14:57N 40°29' E 017°13'0 0.0
2017-Jun-19 14:00N 40°29' E 017°13'0 0.0
2017-Jun-19 13:30N 40°29' E 017°13'0 0.0
2017-Jun-19 12:57N 40°29' E 017°13'0 0.0
2017-Jun-19 12:30N 40°29' E 017°13'0 0.0
2017-Jun-19 11:57N 40°29' E 017°13'0 0.0
2017-Jun-19 11:15N 40°29' E 017°12'0 0.0
2017-Jun-19 11:00N 40°29' E 017°13'0 0.0
2017-Jun-19 10:27N 40°29' E 017°13'0 0.0
2017-Jun-19 09:57N 40°29' E 017°13'0 0.0
2017-Jun-19 09:30N 40°29' E 017°13'0 0.0
2017-Jun-19 09:00N 40°29' E 017°13'0 0.0
2017-Jun-19 08:30N 40°29' E 017°13'0 0.0
2017-Jun-19 07:57N 40°29' E 017°13'0 0.0
2017-Jun-19 07:30N 40°29' E 017°13'0 0.0
2017-Jun-19 07:00N 40°29' E 017°12'0 0.0
2017-Jun-19 06:24N 40°29' E 017°13'0 0.0
2017-Jun-19 05:57N 40°29' E 017°13'0 0.0
2017-Jun-19 05:24N 40°29' E 017°13'0 0.0
2017-Jun-19 04:51N 40°29' E 017°13'0 0.0
2017-Jun-19 04:27N 40°29' E 017°12'0 0.0
2017-Jun-19 03:57N 40°29' E 017°13'0 0.0
2017-Jun-19 03:30N 40°29' E 017°13'0 0.0
2017-Jun-19 02:54N 40°29' E 017°13'0 0.0
2017-Jun-19 02:18N 40°29' E 017°13'0 0.0
2017-Jun-19 01:57N 40°29' E 017°13'0 0.0
2017-Jun-19 01:30N 40°29' E 017°13'0 0.0
2017-Jun-19 00:57N 40°29' E 017°13'0 0.0
2017-Jun-19 00:18N 40°29' E 017°13'0 0.0
2017-Jun-18 23:57N 40°29' E 017°13'0 0.0
2017-Jun-18 23:30N 40°29' E 017°12'0 0.0
2017-Jun-18 23:00N 40°29' E 017°13'0 0.0
2017-Jun-18 22:24N 40°29' E 017°13'0 0.0
2017-Jun-18 22:00N 40°29' E 017°13'0 0.0
2017-Jun-18 21:30N 40°29' E 017°13'0 0.0
2017-Jun-18 20:57N 40°29' E 017°13'0 0.0
2017-Jun-18 20:30N 40°29' E 017°13'0 0.0
2017-Jun-18 20:00N 40°29' E 017°13'0 0.0
2017-Jun-18 19:27N 40°29' E 017°13'0 0.0
2017-Jun-18 18:57N 40°29' E 017°13'0 0.0
2017-Jun-18 18:30N 40°29' E 017°13'0 0.0
2017-Jun-18 18:00N 40°29' E 017°13'0 0.0
2017-Jun-18 17:24N 40°29' E 017°13'0 0.0
2017-Jun-18 16:54N 40°29' E 017°13'0 0.0
2017-Jun-18 16:30N 40°29' E 017°13'0 0.0
2017-Jun-18 15:54N 40°29' E 017°13'0 0.0
2017-Jun-18 15:30N 40°29' E 017°13'0 0.0
2017-Jun-18 15:00N 40°29' E 017°13'0 0.0
2017-Jun-18 14:00N 40°29' E 017°13'0 0.0
2017-Jun-18 13:30N 40°29' E 017°13'0 0.0
2017-Jun-18 13:00N 40°29' E 017°13'0 0.0
2017-Jun-18 12:27N 40°29' E 017°13'0 0.0
2017-Jun-18 12:00N 40°29' E 017°13'0 0.0
2017-Jun-18 11:18N 40°29' E 017°13'0 0.0
2017-Jun-18 11:00N 40°29' E 017°13'0 0.0
2017-Jun-18 10:27N 40°29' E 017°13'0 0.0
2017-Jun-18 09:57N 40°29' E 017°13'0 0.0
2017-Jun-18 09:30N 40°29' E 017°13'0 0.0
2017-Jun-18 09:00N 40°29' E 017°13'0 0.0
2017-Jun-18 08:30N 40°29' E 017°13'0 0.0
2017-Jun-18 08:00N 40°29' E 017°13'0 0.0
2017-Jun-18 07:30N 40°29' E 017°12'0 0.0
2017-Jun-18 07:00N 40°29' E 017°13'0 0.0
2017-Jun-18 06:27N 40°29' E 017°13'0 0.0
2017-Jun-18 06:00N 40°29' E 017°13'0 0.0
2017-Jun-18 05:30N 40°29' E 017°13'0 0.0
2017-Jun-18 04:57N 40°29' E 017°13'0 0.0
2017-Jun-18 04:30N 40°29' E 017°13'0 0.0
2017-Jun-18 03:51N 40°29' E 017°13'0 0.0
2017-Jun-18 03:27N 40°29' E 017°13'0 0.0
2017-Jun-18 02:54N 40°29' E 017°13'0 0.0
2017-Jun-18 02:30N 40°29' E 017°13'0 0.0
2017-Jun-18 02:00N 40°29' E 017°13'0 0.0
2017-Jun-18 01:30N 40°29' E 017°13'0 0.0
2017-Jun-18 01:00N 40°29' E 017°13'0 0.0
2017-Jun-18 00:30N 40°29' E 017°13'0 0.0
2017-Jun-18 00:00N 40°29' E 017°13'0 0.0
2017-Jun-17 23:30N 40°29' E 017°13'0 0.0
2017-Jun-17 23:00N 40°29' E 017°13'0 0.0
2017-Jun-17 22:30N 40°29' E 017°13'0 0.0
2017-Jun-17 22:00N 40°29' E 017°13'0 0.0
2017-Jun-17 21:30N 40°29' E 017°13'0 0.0
2017-Jun-17 20:54N 40°29' E 017°13'0 0.0
2017-Jun-17 20:27N 40°29' E 017°13'0 0.0
2017-Jun-17 19:57N 40°29' E 017°13'0 0.0
2017-Jun-17 19:27N 40°29' E 017°13'0 0.0
2017-Jun-17 19:00N 40°29' E 017°13'0 0.0
2017-Jun-17 18:30N 40°29' E 017°13'0 0.0
2017-Jun-17 17:54N 40°29' E 017°13'0 0.0
2017-Jun-17 17:27N 40°29' E 017°13'0 0.0
2017-Jun-17 17:00N 40°29' E 017°13'0 0.0
2017-Jun-17 16:27N 40°29' E 017°13'0 0.0
2017-Jun-17 15:57N 40°29' E 017°13'0 0.0
2017-Jun-17 15:30N 40°29' E 017°13'0 0.0
2017-Jun-17 14:57N 40°29' E 017°13'0 0.0
2017-Jun-17 14:00N 40°29' E 017°13'0 0.0
2017-Jun-17 13:27N 40°29' E 017°13'0 0.0
2017-Jun-17 11:30N 40°29' E 017°13'0 0.0
2017-Jun-17 11:00N 40°29' E 017°13'0 0.0
2017-Jun-17 10:30N 40°29' E 017°13'0 0.0
2017-Jun-17 09:51N 40°29' E 017°13'0 0.0
2017-Jun-17 09:24N 40°29' E 017°13'0 0.0
2017-Jun-17 08:57N 40°29' E 017°13'0 0.0
2017-Jun-17 07:06N 40°29' E 017°13'0 0.0
2017-Jun-17 07:00N 40°29' E 017°13'0 0.0
2017-Jun-17 06:21N 40°29' E 017°13'0 0.0
2017-Jun-17 06:00N 40°29' E 017°13'0 0.0
2017-Jun-17 05:24N 40°29' E 017°13'0 0.0
2017-Jun-17 05:00N 40°29' E 017°13'0 0.0
2017-Jun-17 04:18N 40°29' E 017°13'0 0.0
2017-Jun-17 03:57N 40°29' E 017°13'0 0.0
2017-Jun-17 03:30N 40°29' E 017°13'0 0.0
2017-Jun-17 03:00N 40°29' E 017°13'0 0.0
2017-Jun-17 02:30N 40°29' E 017°13'0 0.0
2017-Jun-17 02:00N 40°29' E 017°13'0 0.0
2017-Jun-17 01:30N 40°29' E 017°13'0 0.0
2017-Jun-17 01:00N 40°29' E 017°13'0 0.0
2017-Jun-17 00:30N 40°29' E 017°13'0 0.0
2017-Jun-16 23:48N 40°29' E 017°13'0 0.0
2017-Jun-16 23:27N 40°29' E 017°13'0 0.0
2017-Jun-16 22:57N 40°29' E 017°13'0 0.0
2017-Jun-16 22:27N 40°29' E 017°13'0 0.0
2017-Jun-16 21:51N 40°29' E 017°13'0 0.0
2017-Jun-16 21:27N 40°29' E 017°13'0 0.0
2017-Jun-16 21:00N 40°29' E 017°13'0 0.0
2017-Jun-16 20:30N 40°29' E 017°13'0 0.0
2017-Jun-16 20:00N 40°29' E 017°13'0 0.0
2017-Jun-16 19:30N 40°29' E 017°13'0 0.0
2017-Jun-16 18:57N 40°29' E 017°13'0 0.0
2017-Jun-16 18:30N 40°29' E 017°13'0 0.0
2017-Jun-16 17:51N 40°29' E 017°13'0 0.0
2017-Jun-16 17:30N 40°29' E 017°13'0 0.0
2017-Jun-16 17:00N 40°29' E 017°13'0 0.0
2017-Jun-16 16:24N 40°29' E 017°13'0 0.0
2017-Jun-16 15:42N 40°29' E 017°13'0 0.0
2017-Jun-16 15:30N 40°29' E 017°13'0 0.0
2017-Jun-16 14:57N 40°29' E 017°13'0 0.0
2017-Jun-16 14:27N 40°29' E 017°13'0 0.0
2017-Jun-16 13:30N 40°29' E 017°13'0 0.0
2017-Jun-16 13:00N 40°29' E 017°13'0 0.0
2017-Jun-16 10:57N 40°29' E 017°13'0 0.0
2017-Jun-16 10:24N 40°29' E 017°13'0 0.0
2017-Jun-16 09:51N 40°29' E 017°13'0 0.0
2017-Jun-16 09:30N 40°29' E 017°13'0 0.0
2017-Jun-16 09:00N 40°29' E 017°13'1 2.1
2017-Jun-16 08:30N 40°28' E 017°12'4 8.7
2017-Jun-16 08:00N 40°24' E 017°09'5 9.2
2017-Jun-16 07:30N 40°21' E 017°14'612.2
2017-Jun-16 07:00N 40°17' E 017°20'612.9
2017-Jun-16 06:30N 40°15' E 017°28'712.8
2017-Jun-16 05:59N 40°12' E 017°36'19 1.3
2017-Jun-15 15:12N 40°05' E 017°59'  

Dump ship's entire track history